sensor_id;sensor_type;location;lat;lon;timestamp;temperature;humidity
2024;DHT22;1016;48.770;9.154;2023-04-01T00:00:56;11.20;99.90
2024;DHT22;1016;48.770;9.154;2023-04-01T00:03:23;11.20;99.90
2024;DHT22;1016;48.770;9.154;2023-04-01T00:05:49;11.20;99.90
2024;DHT22;1016;48.770;9.154;2023-04-01T00:08:15;11.20;99.90
2024;DHT22;1016;48.770;9.154;2023-04-01T00:10:41;11.20;99.90
2024;DHT22;1016;48.770;9.154;2023-04-01T00:13:07;11.20;99.90
2024;DHT22;1016;48.770;9.154;2023-04-01T00:15:33;11.40;99.90
2024;DHT22;1016;48.770;9.154;2023-04-01T00:17:59;11.30;99.90
2024;DHT22;1016;48.770;9.154;2023-04-01T00:20:25;11.30;99.90
2024;DHT22;1016;48.770;9.154;2023-04-01T00:22:51;11.30;99.90
2024;DHT22;1016;48.770;9.154;2023-04-01T00:25:17;11.30;99.90
2024;DHT22;1016;48.770;9.154;2023-04-01T00:27:42;11.30;99.90
2024;DHT22;1016;48.770;9.154;2023-04-01T00:30:08;11.30;99.90
2024;DHT22;1016;48.770;9.154;2023-04-01T00:32:34;11.20;99.90
2024;DHT22;1016;48.770;9.154;2023-04-01T00:35:01;11.30;99.90
2024;DHT22;1016;48.770;9.154;2023-04-01T00:37:27;11.40;99.90
2024;DHT22;1016;48.770;9.154;2023-04-01T00:39:53;11.30;99.90
2024;DHT22;1016;48.770;9.154;2023-04-01T00:42:19;11.30;99.90
2024;DHT22;1016;48.770;9.154;2023-04-01T00:44:52;11.20;99.90
2024;DHT22;1016;48.770;9.154;2023-04-01T00:47:18;11.40;99.90
2024;DHT22;1016;48.770;9.154;2023-04-01T00:49:47;11.40;99.90
2024;DHT22;1016;48.770;9.154;2023-04-01T00:52:17;11.30;99.90
2024;DHT22;1016;48.770;9.154;2023-04-01T00:54:46;11.30;99.90
2024;DHT22;1016;48.770;9.154;2023-04-01T00:57:21;11.30;99.90
2024;DHT22;1016;48.770;9.154;2023-04-01T00:59:52;11.30;99.90
2024;DHT22;1016;48.770;9.154;2023-04-01T01:02:20;11.40;99.90
2024;DHT22;1016;48.770;9.154;2023-04-01T01:04:46;11.40;99.90
2024;DHT22;1016;48.770;9.154;2023-04-01T01:10:18;11.40;99.90
2024;DHT22;1016;48.770;9.154;2023-04-01T01:21:42;11.30;99.90
2024;DHT22;1016;48.770;9.154;2023-04-01T01:27:10;11.30;99.90
2024;DHT22;1016;48.770;9.154;2023-04-01T01:35:53;11.40;99.90
2024;DHT22;1016;48.770;9.154;2023-04-01T01:38:18;11.40;99.90
2024;DHT22;1016;48.770;9.154;2023-04-01T01:40:48;11.40;99.90
2024;DHT22;1016;48.770;9.154;2023-04-01T01:43:21;11.40;99.90
2024;DHT22;1016;48.770;9.154;2023-04-01T01:45:52;11.40;99.90
2024;DHT22;1016;48.770;9.154;2023-04-01T01:48:19;11.40;99.90
2024;DHT22;1016;48.770;9.154;2023-04-01T01:50:46;11.30;99.90
2024;DHT22;1016;48.770;9.154;2023-04-01T01:53:12;11.40;99.90
2024;DHT22;1016;48.770;9.154;2023-04-01T01:55:41;11.50;99.90
2024;DHT22;1016;48.770;9.154;2023-04-01T01:58:30;11.30;99.90
2024;DHT22;1016;48.770;9.154;2023-04-01T02:01:01;11.40;99.90
2024;DHT22;1016;48.770;9.154;2023-04-01T02:03:30;11.30;99.90
2024;DHT22;1016;48.770;9.154;2023-04-01T02:06:00;11.30;99.90
2024;DHT22;1016;48.770;9.154;2023-04-01T02:08:36;11.30;99.90
2024;DHT22;1016;48.770;9.154;2023-04-01T02:11:06;11.20;99.90
2024;DHT22;1016;48.770;9.154;2023-04-01T02:13:49;11.40;99.90
2024;DHT22;1016;48.770;9.154;2023-04-01T02:16:21;11.20;99.90
2024;DHT22;1016;48.770;9.154;2023-04-01T02:18:50;11.20;99.90
2024;DHT22;1016;48.770;9.154;2023-04-01T02:21:20;11.20;99.90
2024;DHT22;1016;48.770;9.154;2023-04-01T02:23:47;11.20;99.90
2024;DHT22;1016;48.770;9.154;2023-04-01T02:26:13;11.30;99.90
2024;DHT22;1016;48.770;9.154;2023-04-01T02:28:40;11.20;99.90
2024;DHT22;1016;48.770;9.154;2023-04-01T02:31:08;11.20;99.90
2024;DHT22;1016;48.770;9.154;2023-04-01T02:33:35;11.20;99.90
2024;DHT22;1016;48.770;9.154;2023-04-01T02:36:02;11.20;99.90
2024;DHT22;1016;48.770;9.154;2023-04-01T02:38:27;11.20;99.90
2024;DHT22;1016;48.770;9.154;2023-04-01T02:40:58;11.20;99.90
2024;DHT22;1016;48.770;9.154;2023-04-01T02:43:24;11.20;99.90
2024;DHT22;1016;48.770;9.154;2023-04-01T02:45:50;11.20;99.90
2024;DHT22;1016;48.770;9.154;2023-04-01T02:48:15;11.10;99.90
2024;DHT22;1016;48.770;9.154;2023-04-01T02:50:41;11.20;99.90
2024;DHT22;1016;48.770;9.154;2023-04-01T02:53:06;11.20;99.90
2024;DHT22;1016;48.770;9.154;2023-04-01T02:55:33;11.20;99.90
2024;DHT22;1016;48.770;9.154;2023-04-01T02:57:59;11.10;99.90
2024;DHT22;1016;48.770;9.154;2023-04-01T03:00:25;11.20;99.90
2024;DHT22;1016;48.770;9.154;2023-04-01T03:02:51;11.10;99.90
2024;DHT22;1016;48.770;9.154;2023-04-01T03:05:16;11.10;99.90
2024;DHT22;1016;48.770;9.154;2023-04-01T03:07:42;11.10;99.90
2024;DHT22;1016;48.770;9.154;2023-04-01T03:10:08;11.10;99.90
2024;DHT22;1016;48.770;9.154;2023-04-01T03:12:34;11.00;99.90
2024;DHT22;1016;48.770;9.154;2023-04-01T03:14:59;11.00;99.90
2024;DHT22;1016;48.770;9.154;2023-04-01T03:17:25;11.00;99.90
2024;DHT22;1016;48.770;9.154;2023-04-01T03:19:50;11.00;99.90
2024;DHT22;1016;48.770;9.154;2023-04-01T03:22:16;11.00;99.90
2024;DHT22;1016;48.770;9.154;2023-04-01T03:24:41;11.10;99.90
2024;DHT22;1016;48.770;9.154;2023-04-01T03:27:07;11.00;99.90
2024;DHT22;1016;48.770;9.154;2023-04-01T03:29:33;11.00;99.90
2024;DHT22;1016;48.770;9.154;2023-04-01T03:31:58;11.00;99.90
2024;DHT22;1016;48.770;9.154;2023-04-01T03:34:25;11.00;99.90
2024;DHT22;1016;48.770;9.154;2023-04-01T03:36:51;11.00;99.90
2024;DHT22;1016;48.770;9.154;2023-04-01T03:39:17;11.00;99.90
2024;DHT22;1016;48.770;9.154;2023-04-01T03:41:44;11.00;99.90
2024;DHT22;1016;48.770;9.154;2023-04-01T03:44:11;11.00;99.90
2024;DHT22;1016;48.770;9.154;2023-04-01T03:46:36;11.00;99.90
2024;DHT22;1016;48.770;9.154;2023-04-01T03:49:02;11.10;99.90
2024;DHT22;1016;48.770;9.154;2023-04-01T03:51:28;11.00;99.90
2024;DHT22;1016;48.770;9.154;2023-04-01T03:53:53;11.00;99.90
2024;DHT22;1016;48.770;9.154;2023-04-01T03:56:19;10.90;99.90
2024;DHT22;1016;48.770;9.154;2023-04-01T03:58:45;10.90;99.90
2024;DHT22;1016;48.770;9.154;2023-04-01T04:01:15;10.90;99.90
2024;DHT22;1016;48.770;9.154;2023-04-01T04:03:41;10.90;99.90
2024;DHT22;1016;48.770;9.154;2023-04-01T04:06:11;10.80;99.90
2024;DHT22;1016;48.770;9.154;2023-04-01T04:08:36;10.90;99.90
2024;DHT22;1016;48.770;9.154;2023-04-01T04:11:02;10.90;99.90
2024;DHT22;1016;48.770;9.154;2023-04-01T04:13:27;10.90;99.90
2024;DHT22;1016;48.770;9.154;2023-04-01T04:15:53;10.90;99.90
2024;DHT22;1016;48.770;9.154;2023-04-01T04:18:18;10.80;99.90
2024;DHT22;1016;48.770;9.154;2023-04-01T04:20:45;10.80;99.90
2024;DHT22;1016;48.770;9.154;2023-04-01T04:23:12;10.90;99.90
2024;DHT22;1016;48.770;9.154;2023-04-01T04:25:38;10.90;99.90
2024;DHT22;1016;48.770;9.154;2023-04-01T04:28:04;10.90;99.90
2024;DHT22;1016;48.770;9.154;2023-04-01T04:30:29;10.90;99.90
2024;DHT22;1016;48.770;9.154;2023-04-01T04:32:55;10.80;99.90
2024;DHT22;1016;48.770;9.154;2023-04-01T04:35:20;10.80;99.90
2024;DHT22;1016;48.770;9.154;2023-04-01T04:37:46;10.80;99.90
2024;DHT22;1016;48.770;9.154;2023-04-01T04:40:11;10.80;99.90
2024;DHT22;1016;48.770;9.154;2023-04-01T04:42:37;10.80;99.90
2024;DHT22;1016;48.770;9.154;2023-04-01T04:45:03;10.80;99.90
2024;DHT22;1016;48.770;9.154;2023-04-01T04:47:28;10.70;99.90
2024;DHT22;1016;48.770;9.154;2023-04-01T04:49:54;10.70;99.90
2024;DHT22;1016;48.770;9.154;2023-04-01T04:52:19;10.70;99.90
2024;DHT22;1016;48.770;9.154;2023-04-01T04:54:45;10.70;99.90
2024;DHT22;1016;48.770;9.154;2023-04-01T04:57:11;10.70;99.90
2024;DHT22;1016;48.770;9.154;2023-04-01T04:59:36;10.70;99.90
2024;DHT22;1016;48.770;9.154;2023-04-01T05:02:02;10.70;99.90
2024;DHT22;1016;48.770;9.154;2023-04-01T05:04:27;10.70;99.90
2024;DHT22;1016;48.770;9.154;2023-04-01T05:06:53;10.70;99.90
2024;DHT22;1016;48.770;9.154;2023-04-01T05:09:19;10.70;99.90
2024;DHT22;1016;48.770;9.154;2023-04-01T05:11:44;10.70;99.90
2024;DHT22;1016;48.770;9.154;2023-04-01T05:14:15;10.70;99.90
2024;DHT22;1016;48.770;9.154;2023-04-01T05:16:40;10.70;99.90
2024;DHT22;1016;48.770;9.154;2023-04-01T05:19:06;10.80;99.90
2024;DHT22;1016;48.770;9.154;2023-04-01T05:21:32;10.80;99.90
2024;DHT22;1016;48.770;9.154;2023-04-01T05:23:57;10.80;99.90
2024;DHT22;1016;48.770;9.154;2023-04-01T05:26:22;10.80;99.90
2024;DHT22;1016;48.770;9.154;2023-04-01T05:28:48;10.80;99.90
2024;DHT22;1016;48.770;9.154;2023-04-01T05:31:13;10.80;99.90
2024;DHT22;1016;48.770;9.154;2023-04-01T05:33:39;10.80;99.90
2024;DHT22;1016;48.770;9.154;2023-04-01T05:36:06;10.80;99.90
2024;DHT22;1016;48.770;9.154;2023-04-01T05:38:32;10.80;99.90
2024;DHT22;1016;48.770;9.154;2023-04-01T05:41:01;10.80;99.90
2024;DHT22;1016;48.770;9.154;2023-04-01T05:43:27;10.80;99.90
2024;DHT22;1016;48.770;9.154;2023-04-01T05:45:53;10.80;99.90
2024;DHT22;1016;48.770;9.154;2023-04-01T05:48:18;10.80;99.90
2024;DHT22;1016;48.770;9.154;2023-04-01T05:50:44;10.80;99.90
2024;DHT22;1016;48.770;9.154;2023-04-01T05:53:09;10.90;99.90
2024;DHT22;1016;48.770;9.154;2023-04-01T05:55:36;10.90;99.90
2024;DHT22;1016;48.770;9.154;2023-04-01T05:58:01;10.90;99.90
2024;DHT22;1016;48.770;9.154;2023-04-01T06:00:27;10.90;99.90
2024;DHT22;1016;48.770;9.154;2023-04-01T06:02:52;11.00;99.90
2024;DHT22;1016;48.770;9.154;2023-04-01T06:05:21;11.00;99.90
2024;DHT22;1016;48.770;9.154;2023-04-01T06:07:47;11.00;99.90
2024;DHT22;1016;48.770;9.154;2023-04-01T06:10:20;11.00;99.90
2024;DHT22;1016;48.770;9.154;2023-04-01T06:12:57;11.00;99.90
2024;DHT22;1016;48.770;9.154;2023-04-01T06:15:35;11.00;99.90
2024;DHT22;1016;48.770;9.154;2023-04-01T06:29:18;11.20;99.90
2024;DHT22;1016;48.770;9.154;2023-04-01T06:31:47;11.30;99.90
2024;DHT22;1016;48.770;9.154;2023-04-01T06:34:38;11.30;99.90
2024;DHT22;1016;48.770;9.154;2023-04-01T06:40:35;11.20;99.90
2024;DHT22;1016;48.770;9.154;2023-04-01T06:46:06;11.20;99.90
2024;DHT22;1016;48.770;9.154;2023-04-01T06:48:40;11.20;99.90
2024;DHT22;1016;48.770;9.154;2023-04-01T06:51:25;11.20;99.90
2024;DHT22;1016;48.770;9.154;2023-04-01T06:56:25;11.20;99.90
2024;DHT22;1016;48.770;9.154;2023-04-01T06:59:15;11.20;99.90
2024;DHT22;1016;48.770;9.154;2023-04-01T07:01:55;11.30;99.90
2024;DHT22;1016;48.770;9.154;2023-04-01T07:04:37;11.30;99.90
2024;DHT22;1016;48.770;9.154;2023-04-01T07:07:14;11.40;99.90
2024;DHT22;1016;48.770;9.154;2023-04-01T07:09:45;11.30;99.90
2024;DHT22;1016;48.770;9.154;2023-04-01T07:12:37;11.40;99.90
2024;DHT22;1016;48.770;9.154;2023-04-01T07:15:20;11.40;99.90
2024;DHT22;1016;48.770;9.154;2023-04-01T07:17:52;11.50;99.90
2024;DHT22;1016;48.770;9.154;2023-04-01T07:20:28;11.40;99.90
2024;DHT22;1016;48.770;9.154;2023-04-01T07:22:58;11.50;99.90
2024;DHT22;1016;48.770;9.154;2023-04-01T07:25:35;11.50;99.90
2024;DHT22;1016;48.770;9.154;2023-04-01T07:28:11;11.50;99.90
2024;DHT22;1016;48.770;9.154;2023-04-01T07:31:04;11.50;99.90
2024;DHT22;1016;48.770;9.154;2023-04-01T07:34:01;11.50;99.90
2024;DHT22;1016;48.770;9.154;2023-04-01T07:37:06;11.50;99.90
2024;DHT22;1016;48.770;9.154;2023-04-01T07:45:28;11.50;99.90
2024;DHT22;1016;48.770;9.154;2023-04-01T07:50:32;11.50;99.90
2024;DHT22;1016;48.770;9.154;2023-04-01T07:53:17;11.50;99.90
2024;DHT22;1016;48.770;9.154;2023-04-01T07:56:01;11.50;99.90
2024;DHT22;1016;48.770;9.154;2023-04-01T08:04:53;11.60;99.90
2024;DHT22;1016;48.770;9.154;2023-04-01T08:07:45;11.60;99.90
2024;DHT22;1016;48.770;9.154;2023-04-01T08:10:44;11.70;99.90
2024;DHT22;1016;48.770;9.154;2023-04-01T08:13:40;11.70;99.90
2024;DHT22;1016;48.770;9.154;2023-04-01T08:16:26;11.70;99.90
2024;DHT22;1016;48.770;9.154;2023-04-01T08:22:07;11.60;99.90
2024;DHT22;1016;48.770;9.154;2023-04-01T08:24:55;11.60;99.90
2024;DHT22;1016;48.770;9.154;2023-04-01T08:30:19;11.70;99.90
2024;DHT22;1016;48.770;9.154;2023-04-01T08:32:54;11.80;99.90
2024;DHT22;1016;48.770;9.154;2023-04-01T08:35:29;11.80;99.90
2024;DHT22;1016;48.770;9.154;2023-04-01T08:38:05;11.70;99.90
2024;DHT22;1016;48.770;9.154;2023-04-01T08:43:39;11.60;99.90
2024;DHT22;1016;48.770;9.154;2023-04-01T08:54:31;11.50;99.90
2024;DHT22;1016;48.770;9.154;2023-04-01T08:59:56;11.50;99.90
2024;DHT22;1016;48.770;9.154;2023-04-01T09:02:46;11.40;99.90
2024;DHT22;1016;48.770;9.154;2023-04-01T09:05:35;11.40;99.90
2024;DHT22;1016;48.770;9.154;2023-04-01T09:13:56;11.40;99.90
2024;DHT22;1016;48.770;9.154;2023-04-01T09:19:25;11.50;99.90
2024;DHT22;1016;48.770;9.154;2023-04-01T09:27:10;11.70;99.90
2024;DHT22;1016;48.770;9.154;2023-04-01T09:32:44;11.80;99.90
2024;DHT22;1016;48.770;9.154;2023-04-01T09:41:18;12.00;99.90
2024;DHT22;1016;48.770;9.154;2023-04-01T09:44:11;11.90;99.90
2024;DHT22;1016;48.770;9.154;2023-04-01T09:49:50;11.80;99.90
2024;DHT22;1016;48.770;9.154;2023-04-01T09:52:47;11.80;99.90
2024;DHT22;1016;48.770;9.154;2023-04-01T09:58:16;11.80;99.90
2024;DHT22;1016;48.770;9.154;2023-04-01T10:01:05;11.80;99.90
2024;DHT22;1016;48.770;9.154;2023-04-01T10:04:17;11.90;99.90
2024;DHT22;1016;48.770;9.154;2023-04-01T10:06:58;11.70;99.90
2024;DHT22;1016;48.770;9.154;2023-04-01T10:10:07;11.70;99.90
2024;DHT22;1016;48.770;9.154;2023-04-01T10:12:57;11.70;99.90
2024;DHT22;1016;48.770;9.154;2023-04-01T10:16:03;11.80;99.90
2024;DHT22;1016;48.770;9.154;2023-04-01T10:24:12;11.90;99.90
2024;DHT22;1016;48.770;9.154;2023-04-01T10:32:23;12.10;99.90
2024;DHT22;1016;48.770;9.154;2023-04-01T10:38:06;12.20;99.90
2024;DHT22;1016;48.770;9.154;2023-04-01T10:40:57;12.20;99.90
2024;DHT22;1016;48.770;9.154;2023-04-01T10:44:31;12.30;99.90
2024;DHT22;1016;48.770;9.154;2023-04-01T10:52:10;12.40;99.90
2024;DHT22;1016;48.770;9.154;2023-04-01T11:12:09;12.40;99.90
2024;DHT22;1016;48.770;9.154;2023-04-01T11:15:00;12.40;99.90
2024;DHT22;1016;48.770;9.154;2023-04-01T11:17:50;12.40;99.90
2024;DHT22;1016;48.770;9.154;2023-04-01T11:20:41;12.40;99.90
2024;DHT22;1016;48.770;9.154;2023-04-01T11:26:09;12.40;99.90
2024;DHT22;1016;48.770;9.154;2023-04-01T11:31:23;12.60;99.90
2024;DHT22;1016;48.770;9.154;2023-04-01T11:40:12;12.90;99.90
2024;DHT22;1016;48.770;9.154;2023-04-01T11:42:57;13.00;99.90
2024;DHT22;1016;48.770;9.154;2023-04-01T11:45:52;13.00;99.90
2024;DHT22;1016;48.770;9.154;2023-04-01T11:51:08;12.90;99.90
2024;DHT22;1016;48.770;9.154;2023-04-01T11:53:48;12.80;99.90
2024;DHT22;1016;48.770;9.154;2023-04-01T12:10:39;12.90;99.90
2024;DHT22;1016;48.770;9.154;2023-04-01T12:18:49;12.80;99.90
2024;DHT22;1016;48.770;9.154;2023-04-01T12:21:25;12.80;99.90
2024;DHT22;1016;48.770;9.154;2023-04-01T12:24:03;12.80;99.90
2024;DHT22;1016;48.770;9.154;2023-04-01T12:26:43;12.70;99.90
2024;DHT22;1016;48.770;9.154;2023-04-01T12:29:28;12.90;99.90
2024;DHT22;1016;48.770;9.154;2023-04-01T12:32:31;12.80;99.90
2024;DHT22;1016;48.770;9.154;2023-04-01T12:38:10;12.90;99.90
2024;DHT22;1016;48.770;9.154;2023-04-01T12:40:46;12.90;99.90
2024;DHT22;1016;48.770;9.154;2023-04-01T12:43:42;13.00;99.90
2024;DHT22;1016;48.770;9.154;2023-04-01T12:49:23;13.10;99.90
2024;DHT22;1016;48.770;9.154;2023-04-01T12:52:08;13.20;99.90
2024;DHT22;1016;48.770;9.154;2023-04-01T13:05:55;13.60;99.90
2024;DHT22;1016;48.770;9.154;2023-04-01T13:14:13;13.40;99.90
2024;DHT22;1016;48.770;9.154;2023-04-01T13:16:48;13.30;99.90
2024;DHT22;1016;48.770;9.154;2023-04-01T13:24:41;13.00;99.90
2024;DHT22;1016;48.770;9.154;2023-04-01T13:27:34;12.90;99.90
2024;DHT22;1016;48.770;9.154;2023-04-01T13:35:50;12.90;99.90
2024;DHT22;1016;48.770;9.154;2023-04-01T13:43:51;12.90;99.90
2024;DHT22;1016;48.770;9.154;2023-04-01T13:51:49;12.90;99.90
2024;DHT22;1016;48.770;9.154;2023-04-01T13:54:47;13.00;99.90
2024;DHT22;1016;48.770;9.154;2023-04-01T14:06:35;13.30;99.90
2024;DHT22;1016;48.770;9.154;2023-04-01T14:12:21;13.30;99.90
2024;DHT22;1016;48.770;9.154;2023-04-01T14:17:54;13.30;99.90
2024;DHT22;1016;48.770;9.154;2023-04-01T14:36:47;13.00;99.90
2024;DHT22;1016;48.770;9.154;2023-04-01T14:44:57;12.90;99.90
2024;DHT22;1016;48.770;9.154;2023-04-01T14:47:42;12.80;99.90
2024;DHT22;1016;48.770;9.154;2023-04-01T14:50:17;12.80;99.90
2024;DHT22;1016;48.770;9.154;2023-04-01T14:58:12;12.90;99.90
2024;DHT22;1016;48.770;9.154;2023-04-01T15:03:37;12.90;99.90
2024;DHT22;1016;48.770;9.154;2023-04-01T15:09:11;13.00;99.90
2024;DHT22;1016;48.770;9.154;2023-04-01T15:12:00;13.00;99.90
2024;DHT22;1016;48.770;9.154;2023-04-01T15:17:43;13.00;99.90
2024;DHT22;1016;48.770;9.154;2023-04-01T15:29:41;13.00;99.90
2024;DHT22;1016;48.770;9.154;2023-04-01T15:41:17;13.00;99.90
2024;DHT22;1016;48.770;9.154;2023-04-01T15:43:43;13.00;99.90
2024;DHT22;1016;48.770;9.154;2023-04-01T15:46:39;13.00;99.90
2024;DHT22;1016;48.770;9.154;2023-04-01T15:52:55;12.90;99.90
2024;DHT22;1016;48.770;9.154;2023-04-01T15:58:01;12.80;99.90
2024;DHT22;1016;48.770;9.154;2023-04-01T16:00:31;12.80;99.90
2024;DHT22;1016;48.770;9.154;2023-04-01T16:06:18;12.80;99.90
2024;DHT22;1016;48.770;9.154;2023-04-01T16:11:48;12.70;99.90
2024;DHT22;1016;48.770;9.154;2023-04-01T16:14:41;12.70;99.90
2024;DHT22;1016;48.770;9.154;2023-04-01T16:17:36;12.70;99.90
2024;DHT22;1016;48.770;9.154;2023-04-01T16:20:24;12.70;99.90
2024;DHT22;1016;48.770;9.154;2023-04-01T16:23:13;12.70;99.90
2024;DHT22;1016;48.770;9.154;2023-04-01T16:25:49;12.80;99.90
2024;DHT22;1016;48.770;9.154;2023-04-01T16:28:40;12.70;99.90
2024;DHT22;1016;48.770;9.154;2023-04-01T16:31:25;12.70;99.90
2024;DHT22;1016;48.770;9.154;2023-04-01T16:34:08;12.60;99.90
2024;DHT22;1016;48.770;9.154;2023-04-01T16:37:11;12.60;99.90
2024;DHT22;1016;48.770;9.154;2023-04-01T16:42:38;12.60;99.90
2024;DHT22;1016;48.770;9.154;2023-04-01T16:47:56;12.70;99.90
2024;DHT22;1016;48.770;9.154;2023-04-01T16:50:25;12.70;99.90
2024;DHT22;1016;48.770;9.154;2023-04-01T16:53:16;12.70;99.90
2024;DHT22;1016;48.770;9.154;2023-04-01T16:58:34;12.70;99.90
2024;DHT22;1016;48.770;9.154;2023-04-01T17:01:12;12.70;99.90
2024;DHT22;1016;48.770;9.154;2023-04-01T17:03:45;12.70;99.90
2024;DHT22;1016;48.770;9.154;2023-04-01T17:06:12;12.70;99.90
2024;DHT22;1016;48.770;9.154;2023-04-01T17:17:43;12.70;99.90
2024;DHT22;1016;48.770;9.154;2023-04-01T17:23:09;12.60;99.90
2024;DHT22;1016;48.770;9.154;2023-04-01T17:26:01;12.60;99.90
2024;DHT22;1016;48.770;9.154;2023-04-01T17:37:02;12.50;99.90
2024;DHT22;1016;48.770;9.154;2023-04-01T17:49:52;12.50;99.90
2024;DHT22;1016;48.770;9.154;2023-04-01T17:52:44;12.50;99.90
2024;DHT22;1016;48.770;9.154;2023-04-01T17:57:43;12.50;99.90
2024;DHT22;1016;48.770;9.154;2023-04-01T18:00:24;12.50;99.90
2024;DHT22;1016;48.770;9.154;2023-04-01T18:02:55;12.50;99.90
2024;DHT22;1016;48.770;9.154;2023-04-01T18:05:31;12.50;99.90
2024;DHT22;1016;48.770;9.154;2023-04-01T18:14:36;12.50;99.90
2024;DHT22;1016;48.770;9.154;2023-04-01T18:17:18;12.40;99.90
2024;DHT22;1016;48.770;9.154;2023-04-01T18:22:44;12.30;99.90
2024;DHT22;1016;48.770;9.154;2023-04-01T18:25:36;12.30;99.90
2024;DHT22;1016;48.770;9.154;2023-04-01T18:30:53;12.30;99.90
2024;DHT22;1016;48.770;9.154;2023-04-01T18:33:31;12.40;99.90
2024;DHT22;1016;48.770;9.154;2023-04-01T18:39:31;12.30;99.90
2024;DHT22;1016;48.770;9.154;2023-04-01T18:45:18;12.20;99.90
2024;DHT22;1016;48.770;9.154;2023-04-01T18:50:58;12.00;99.90
2024;DHT22;1016;48.770;9.154;2023-04-01T18:53:34;11.90;99.90
2024;DHT22;1016;48.770;9.154;2023-04-01T18:56:04;11.90;99.90
2024;DHT22;1016;48.770;9.154;2023-04-01T18:58:35;11.80;99.90
2024;DHT22;1016;48.770;9.154;2023-04-01T19:03:53;11.70;99.90
2024;DHT22;1016;48.770;9.154;2023-04-01T19:06:41;11.60;99.90
2024;DHT22;1016;48.770;9.154;2023-04-01T19:12:13;11.50;99.90
2024;DHT22;1016;48.770;9.154;2023-04-01T19:14:49;11.50;99.90
2024;DHT22;1016;48.770;9.154;2023-04-01T19:17:51;11.50;99.90
2024;DHT22;1016;48.770;9.154;2023-04-01T19:20:45;11.50;99.90
2024;DHT22;1016;48.770;9.154;2023-04-01T19:32:21;11.40;99.90
2024;DHT22;1016;48.770;9.154;2023-04-01T19:40:41;11.40;99.90
2024;DHT22;1016;48.770;9.154;2023-04-01T19:43:35;11.40;99.90
2024;DHT22;1016;48.770;9.154;2023-04-01T19:46:16;11.40;99.90
2024;DHT22;1016;48.770;9.154;2023-04-01T19:54:19;11.40;99.90
2024;DHT22;1016;48.770;9.154;2023-04-01T19:56:48;11.40;99.90
2024;DHT22;1016;48.770;9.154;2023-04-01T19:59:42;11.50;99.90
2024;DHT22;1016;48.770;9.154;2023-04-01T20:02:32;11.40;99.90
2024;DHT22;1016;48.770;9.154;2023-04-01T20:05:04;11.40;99.90
2024;DHT22;1016;48.770;9.154;2023-04-01T20:07:44;11.40;99.90
2024;DHT22;1016;48.770;9.154;2023-04-01T20:15:37;11.40;99.90
2024;DHT22;1016;48.770;9.154;2023-04-01T20:18:16;11.40;99.90
2024;DHT22;1016;48.770;9.154;2023-04-01T20:20:54;11.30;99.90
2024;DHT22;1016;48.770;9.154;2023-04-01T20:23:42;11.30;99.90
2024;DHT22;1016;48.770;9.154;2023-04-01T20:26:11;11.40;99.90
2024;DHT22;1016;48.770;9.154;2023-04-01T20:31:44;11.40;99.90
2024;DHT22;1016;48.770;9.154;2023-04-01T20:34:44;11.30;99.90
2024;DHT22;1016;48.770;9.154;2023-04-01T20:45:35;11.20;99.90
2024;DHT22;1016;48.770;9.154;2023-04-01T20:48:22;11.20;99.90
2024;DHT22;1016;48.770;9.154;2023-04-01T20:51:07;11.20;99.90
2024;DHT22;1016;48.770;9.154;2023-04-01T21:02:36;11.20;99.90
2024;DHT22;1016;48.770;9.154;2023-04-01T21:08:14;11.20;99.90
2024;DHT22;1016;48.770;9.154;2023-04-01T21:11:04;11.30;99.90
2024;DHT22;1016;48.770;9.154;2023-04-01T21:16:49;11.20;99.90
2024;DHT22;1016;48.770;9.154;2023-04-01T21:29:53;11.20;99.90
2024;DHT22;1016;48.770;9.154;2023-04-01T21:38:02;11.30;99.90
2024;DHT22;1016;48.770;9.154;2023-04-01T21:40:34;11.30;99.90
2024;DHT22;1016;48.770;9.154;2023-04-01T21:43:12;11.20;99.90
2024;DHT22;1016;48.770;9.154;2023-04-01T21:46:07;11.20;99.90
2024;DHT22;1016;48.770;9.154;2023-04-01T21:49:07;11.20;99.90
2024;DHT22;1016;48.770;9.154;2023-04-01T21:54:44;11.20;99.90
2024;DHT22;1016;48.770;9.154;2023-04-01T21:57:19;11.20;99.90
2024;DHT22;1016;48.770;9.154;2023-04-01T22:00:08;11.20;99.90
2024;DHT22;1016;48.770;9.154;2023-04-01T22:05:54;11.10;99.90
2024;DHT22;1016;48.770;9.154;2023-04-01T22:08:42;11.10;99.90
2024;DHT22;1016;48.770;9.154;2023-04-01T22:11:37;11.20;99.90
2024;DHT22;1016;48.770;9.154;2023-04-01T22:17:16;11.10;99.90
2024;DHT22;1016;48.770;9.154;2023-04-01T22:20:03;11.20;99.90
2024;DHT22;1016;48.770;9.154;2023-04-01T22:22:57;11.10;99.90
2024;DHT22;1016;48.770;9.154;2023-04-01T22:25:50;11.10;99.90
2024;DHT22;1016;48.770;9.154;2023-04-01T22:28:46;11.10;99.90
2024;DHT22;1016;48.770;9.154;2023-04-01T22:31:19;11.10;99.90
2024;DHT22;1016;48.770;9.154;2023-04-01T22:36:58;11.10;99.90
2024;DHT22;1016;48.770;9.154;2023-04-01T22:42:33;11.10;99.90
2024;DHT22;1016;48.770;9.154;2023-04-01T22:45:42;11.10;99.90
2024;DHT22;1016;48.770;9.154;2023-04-01T22:50:59;11.10;99.90
2024;DHT22;1016;48.770;9.154;2023-04-01T22:56:13;11.10;99.90
2024;DHT22;1016;48.770;9.154;2023-04-01T22:58:50;11.10;99.90
2024;DHT22;1016;48.770;9.154;2023-04-01T23:01:22;11.10;99.90
2024;DHT22;1016;48.770;9.154;2023-04-01T23:03:50;11.10;99.90
2024;DHT22;1016;48.770;9.154;2023-04-01T23:06:20;11.10;99.90
2024;DHT22;1016;48.770;9.154;2023-04-01T23:09:08;11.10;99.90
2024;DHT22;1016;48.770;9.154;2023-04-01T23:22:46;11.10;99.90
2024;DHT22;1016;48.770;9.154;2023-04-01T23:25:35;11.10;99.90
2024;DHT22;1016;48.770;9.154;2023-04-01T23:33:26;11.10;99.90
2024;DHT22;1016;48.770;9.154;2023-04-01T23:38:21;11.10;99.90
2024;DHT22;1016;48.770;9.154;2023-04-01T23:40:49;11.10;99.90
2024;DHT22;1016;48.770;9.154;2023-04-01T23:43:26;11.10;99.90
2024;DHT22;1016;48.770;9.154;2023-04-01T23:45:55;11.10;99.90
2024;DHT22;1016;48.770;9.154;2023-04-01T23:48:29;11.10;99.90
2024;DHT22;1016;48.770;9.154;2023-04-01T23:50:56;11.00;99.90
2024;DHT22;1016;48.770;9.154;2023-04-01T23:53:26;11.00;99.90
2024;DHT22;1016;48.770;9.154;2023-04-01T23:55:54;11.00;99.90
2024;DHT22;1016;48.770;9.154;2023-04-01T23:58:26;11.00;99.90
